K-marine X — WDH2136 — position and weather

sailwx.info

Track history (hours):
 
Tides and Currents Weather Stations Pressure Air Temp Water Temp Dewpoint Dewpoint Depression Visibility Wind Speed Wind Dir Waves Ship Positions

K-marine X

Owner: Yellow Fin Marine Services, LLC, Gray, LA. More information available from US FCC via Universal Licensing System and Coast Guard Vessel Documentation Center.

Last reported at 2017-Oct-02 22:55 UTC. Time now 2017-Nov-24 00:22 UTC.
Position N 29°41' W 092°15'.
Warning: this ship's position is 52 days out of date.

Length 80 m; draft 3 m.

Type: Other ship. MMSI: 367594740.

Date/timePositionNaut miles runAvg speedWind from/ knotsBaromVisibWave heightAir tempDewpointWater temp
2017-Oct-02 22:55N 29°41' W 092°15'3 8.5
2017-Oct-02 22:30N 29°44' W 092°14'4 7.9
2017-Oct-02 22:00N 29°47' W 092°10'1 1.6
2017-Oct-02 21:29N 29°47' W 092°11'0 0.0
2017-Oct-02 20:59N 29°47' W 092°11'0 0.2
2017-Oct-02 20:30N 29°47' W 092°11'0 0.0
2017-Oct-02 20:00N 29°47' W 092°11'0 0.0
2017-Oct-02 19:30N 29°47' W 092°11'0 0.0
2017-Oct-02 19:00N 29°47' W 092°11'0 0.0
2017-Oct-02 18:30N 29°47' W 092°11'0 0.0
2017-Oct-02 18:00N 29°47' W 092°11'0 0.0
2017-Oct-02 17:30N 29°47' W 092°11'0 0.0
2017-Oct-02 17:00N 29°47' W 092°11'0 0.0
2017-Oct-02 16:30N 29°47' W 092°11'0 0.0
2017-Oct-02 16:00N 29°47' W 092°11'0 0.0
2017-Oct-02 15:30N 29°47' W 092°11'0 0.0
2017-Oct-02 15:00N 29°47' W 092°11'0 0.0
2017-Oct-02 14:30N 29°47' W 092°11'0 0.0
2017-Oct-02 14:00N 29°47' W 092°11'0 0.0
2017-Oct-02 13:30N 29°47' W 092°11'0 0.0
2017-Oct-02 13:00N 29°47' W 092°11'0 0.0
2017-Oct-02 12:30N 29°47' W 092°11'0 0.0
2017-Oct-02 12:00N 29°47' W 092°11'0 0.0
2017-Oct-02 11:30N 29°47' W 092°11'0 0.0
2017-Oct-02 11:00N 29°47' W 092°11'0 0.0
2017-Oct-02 10:30N 29°47' W 092°11'0 0.0
2017-Oct-02 10:00N 29°47' W 092°11'0 0.0
2017-Oct-02 09:30N 29°47' W 092°11'0 0.0
2017-Oct-02 09:00N 29°47' W 092°11'0 0.0
2017-Oct-02 08:30N 29°47' W 092°11'0 0.1
2017-Oct-02 08:00N 29°47' W 092°11'3 6.0
2017-Oct-02 07:30N 29°45' W 092°13'4 7.9
2017-Oct-02 07:00N 29°41' W 092°15'  
2017-Sep-26 00:07N 29°37' W 092°17'3 6.3
2017-Sep-25 23:42N 29°39' W 092°16'1 6.6
2017-Sep-25 23:30N 29°40' W 092°15'3 6.7
2017-Sep-25 23:00N 29°44' W 092°15'3 6.9
2017-Sep-25 22:31N 29°46' W 092°11'1 2.0
2017-Sep-25 21:59N 29°47' W 092°11'0 0.0
2017-Sep-25 21:29N 29°47' W 092°11'0 0.0
2017-Sep-25 20:59N 29°47' W 092°11'0 0.0
2017-Sep-25 20:29N 29°47' W 092°11'0 0.0
2017-Sep-25 19:59N 29°47' W 092°11'0 0.0
2017-Sep-25 19:29N 29°47' W 092°11'0 0.0
2017-Sep-25 18:59N 29°47' W 092°11'0 0.2
2017-Sep-25 18:29N 29°47' W 092°11'0 0.0
2017-Sep-25 17:59N 29°47' W 092°11'1 1.9
2017-Sep-25 17:29N 29°47' W 092°10'0 0.0
2017-Sep-25 16:59N 29°47' W 092°10'0 0.0
2017-Sep-25 16:29N 29°47' W 092°10'0 0.0
2017-Sep-25 15:59N 29°47' W 092°10'0 0.0
2017-Sep-25 15:29N 29°47' W 092°10'0 0.0
2017-Sep-25 14:59N 29°47' W 092°10'0 0.0
2017-Sep-25 14:29N 29°47' W 092°10'0 0.0
2017-Sep-25 13:59N 29°47' W 092°10'0 0.0
2017-Sep-25 13:29N 29°47' W 092°10'0 0.0
2017-Sep-25 12:59N 29°47' W 092°10'0 0.0
2017-Sep-25 12:29N 29°47' W 092°10'0 0.0
2017-Sep-25 11:59N 29°47' W 092°10'0 0.0
2017-Sep-25 11:29N 29°47' W 092°10'0 0.0
2017-Sep-25 10:59N 29°47' W 092°10'1 1.7
2017-Sep-25 10:30N 29°47' W 092°11'0 0.0
2017-Sep-25 10:00N 29°47' W 092°11'0 0.0
2017-Sep-25 09:30N 29°47' W 092°11'0 0.0
2017-Sep-25 09:00N 29°47' W 092°11'1 1.5
2017-Sep-25 08:31N 29°47' W 092°10'4 8.0
2017-Sep-25 08:01N 29°44' W 092°14'4 7.7
2017-Sep-25 07:30N 29°40' W 092°15'4 7.4
2017-Sep-25 07:00N 29°37' W 092°17'  
Track history (hours):
 
Tides and Currents Weather Stations Pressure Air Temp Water Temp Dewpoint Dewpoint Depression Visibility Wind Speed Wind Dir Waves Ship Positions

K-marine X

Owner: Yellow Fin Marine Services, LLC, Gray, LA. More information available from US FCC via Universal Licensing System and Coast Guard Vessel Documentation Center.

Last reported at 2017-Oct-02 22:55 UTC. Time now 2017-Nov-24 00:22 UTC.
Position N 29°41' W 092°15'.
Warning: this ship's position is 52 days out of date.

Length 80 m; draft 3 m.

Type: Other ship. MMSI: 367594740.

Date/timePositionNaut miles runAvg speedWind from/ knotsBaromVisibWave heightAir tempDewpointWater temp
2017-Oct-02 22:55N 29°41' W 092°15'3 8.5
2017-Oct-02 22:30N 29°44' W 092°14'4 7.9
2017-Oct-02 22:00N 29°47' W 092°10'1 1.6
2017-Oct-02 21:29N 29°47' W 092°11'0 0.0
2017-Oct-02 20:59N 29°47' W 092°11'0 0.2
2017-Oct-02 20:30N 29°47' W 092°11'0 0.0
2017-Oct-02 20:00N 29°47' W 092°11'0 0.0
2017-Oct-02 19:30N 29°47' W 092°11'0 0.0
2017-Oct-02 19:00N 29°47' W 092°11'0 0.0
2017-Oct-02 18:30N 29°47' W 092°11'0 0.0
2017-Oct-02 18:00N 29°47' W 092°11'0 0.0
2017-Oct-02 17:30N 29°47' W 092°11'0 0.0
2017-Oct-02 17:00N 29°47' W 092°11'0 0.0
2017-Oct-02 16:30N 29°47' W 092°11'0 0.0
2017-Oct-02 16:00N 29°47' W 092°11'0 0.0
2017-Oct-02 15:30N 29°47' W 092°11'0 0.0
2017-Oct-02 15:00N 29°47' W 092°11'0 0.0
2017-Oct-02 14:30N 29°47' W 092°11'0 0.0
2017-Oct-02 14:00N 29°47' W 092°11'0 0.0
2017-Oct-02 13:30N 29°47' W 092°11'0 0.0
2017-Oct-02 13:00N 29°47' W 092°11'0 0.0
2017-Oct-02 12:30N 29°47' W 092°11'0 0.0
2017-Oct-02 12:00N 29°47' W 092°11'0 0.0
2017-Oct-02 11:30N 29°47' W 092°11'0 0.0
2017-Oct-02 11:00N 29°47' W 092°11'0 0.0
2017-Oct-02 10:30N 29°47' W 092°11'0 0.0
2017-Oct-02 10:00N 29°47' W 092°11'0 0.0
2017-Oct-02 09:30N 29°47' W 092°11'0 0.0
2017-Oct-02 09:00N 29°47' W 092°11'0 0.0
2017-Oct-02 08:30N 29°47' W 092°11'0 0.1
2017-Oct-02 08:00N 29°47' W 092°11'3 6.0
2017-Oct-02 07:30N 29°45' W 092°13'4 7.9
2017-Oct-02 07:00N 29°41' W 092°15'  
2017-Sep-26 00:07N 29°37' W 092°17'3 6.3
2017-Sep-25 23:42N 29°39' W 092°16'1 6.6
2017-Sep-25 23:30N 29°40' W 092°15'3 6.7
2017-Sep-25 23:00N 29°44' W 092°15'3 6.9
2017-Sep-25 22:31N 29°46' W 092°11'1 2.0
2017-Sep-25 21:59N 29°47' W 092°11'0 0.0
2017-Sep-25 21:29N 29°47' W 092°11'0 0.0
2017-Sep-25 20:59N 29°47' W 092°11'0 0.0
2017-Sep-25 20:29N 29°47' W 092°11'0 0.0
2017-Sep-25 19:59N 29°47' W 092°11'0 0.0
2017-Sep-25 19:29N 29°47' W 092°11'0 0.0
2017-Sep-25 18:59N 29°47' W 092°11'0 0.2
2017-Sep-25 18:29N 29°47' W 092°11'0 0.0
2017-Sep-25 17:59N 29°47' W 092°11'1 1.9
2017-Sep-25 17:29N 29°47' W 092°10'0 0.0
2017-Sep-25 16:59N 29°47' W 092°10'0 0.0
2017-Sep-25 16:29N 29°47' W 092°10'0 0.0
2017-Sep-25 15:59N 29°47' W 092°10'0 0.0
2017-Sep-25 15:29N 29°47' W 092°10'0 0.0
2017-Sep-25 14:59N 29°47' W 092°10'0 0.0
2017-Sep-25 14:29N 29°47' W 092°10'0 0.0
2017-Sep-25 13:59N 29°47' W 092°10'0 0.0
2017-Sep-25 13:29N 29°47' W 092°10'0 0.0
2017-Sep-25 12:59N 29°47' W 092°10'0 0.0
2017-Sep-25 12:29N 29°47' W 092°10'0 0.0
2017-Sep-25 11:59N 29°47' W 092°10'0 0.0
2017-Sep-25 11:29N 29°47' W 092°10'0 0.0
2017-Sep-25 10:59N 29°47' W 092°10'1 1.7
2017-Sep-25 10:30N 29°47' W 092°11'0 0.0
2017-Sep-25 10:00N 29°47' W 092°11'0 0.0
2017-Sep-25 09:30N 29°47' W 092°11'0 0.0
2017-Sep-25 09:00N 29°47' W 092°11'1 1.5
2017-Sep-25 08:31N 29°47' W 092°10'4 8.0
2017-Sep-25 08:01N 29°44' W 092°14'4 7.7
2017-Sep-25 07:30N 29°40' W 092°15'4 7.4
2017-Sep-25 07:00N 29°37' W 092°17'  

Dump ship's entire track history